CheckWX is a tool to help pilots better visualize weather data.  It is not intended as a substitute for an official pre-flight weather briefing.

21:13:00 UTC

KSMF METAR
Sacramento International Airport
Sacramento, California, USA
Current

20 mins ago

KSMF 172053Z 00000KT 10SM CLR 26/09 A3000 RMK AO2 SLP159 T02560094 58011
Observed
Sep-17 @ 20:53 UTC
Visibility
10 SM
Flight Rules
VFR
Cloud Levels
  • Clear skies
Temperature
26°C / 79°F
Dewpoint
C / 48°F
Humidity
34%
Altimeter
30" Hg
Pressure
1015.92 hPa
Previous

1 hour ago

KSMF 171953Z 25005KT 10SM CLR 24/09 A3002 RMK AO2 SLP165 T02390094
Observed
Sep-17 @ 19:53 UTC
Wind
  • 250° at 5 KTS
Visibility
10 SM
Flight Rules
VFR
Cloud Levels
  • Clear skies
Temperature
24°C / 75°F
Dewpoint
C / 48°F
Humidity
39%
Altimeter
30.02" Hg
Pressure
1016.62 hPa
Previous

2 hours ago

KSMF 171853Z VRB05KT 10SM CLR 22/10 A3004 RMK AO2 SLP170 T02220100
Observed
Sep-17 @ 18:53 UTC
Wind
  • Variable at 5 KTS
Visibility
10 SM
Flight Rules
VFR
Cloud Levels
  • Clear skies
Temperature
22°C / 72°F
Dewpoint
10°C / 50°F
Humidity
47%
Altimeter
30.04" Hg
Pressure
1017.32 hPa